createdAt,value
2024-02-15T00:00:03.891Z,22.500000
2024-02-15T00:01:01.064Z,0.000000
2024-02-15T00:02:01.048Z,0.000000
2024-02-15T00:03:33.229Z,0.000000
2024-02-15T00:04:01.172Z,0.000000
2024-02-15T00:05:03.836Z,0.000000
2024-02-15T00:06:01.109Z,33.750000
2024-02-15T00:07:01.065Z,33.750000
2024-02-15T00:08:01.108Z,33.750000
2024-02-15T00:09:01.076Z,67.500000
2024-02-15T00:10:04.349Z,67.500000
2024-02-15T00:11:01.044Z,22.500000
2024-02-15T00:12:01.223Z,33.750000
2024-02-15T00:13:01.072Z,56.250000
2024-02-15T00:14:01.125Z,56.250000
2024-02-15T00:15:05.051Z,56.250000
2024-02-15T00:16:01.190Z,33.750000
2024-02-15T00:17:01.094Z,33.750000
2024-02-15T00:18:01.300Z,33.750000
2024-02-15T00:19:01.355Z,33.750000
2024-02-15T00:20:03.915Z,33.750000
2024-02-15T00:21:01.242Z,33.750000
2024-02-15T00:22:02.595Z,45.000000
2024-02-15T00:23:01.175Z,45.000000
2024-02-15T00:24:01.303Z,56.250000
2024-02-15T00:25:03.761Z,56.250000
2024-02-15T00:26:01.247Z,67.500000
2024-02-15T00:27:01.228Z,67.500000
2024-02-15T00:28:01.373Z,67.500000
2024-02-15T00:29:01.214Z,78.750000
2024-02-15T00:30:03.030Z,78.750000
2024-02-15T00:31:00.255Z,78.750000
2024-02-15T00:32:00.315Z,22.500000
2024-02-15T00:33:00.358Z,22.500000
2024-02-15T00:34:00.717Z,67.500000
2024-02-15T00:35:03.068Z,67.500000
2024-02-15T00:36:00.456Z,78.750000
2024-02-15T00:37:00.391Z,78.750000
2024-02-15T00:38:00.377Z,78.750000
2024-02-15T00:39:00.354Z,33.750000
2024-02-15T00:40:03.661Z,33.750000
2024-02-15T00:41:00.345Z,33.750000
2024-02-15T00:42:00.474Z,78.750000
2024-02-15T00:43:00.342Z,78.750000
2024-02-15T00:44:00.533Z,78.750000
2024-02-15T00:45:02.804Z,78.750000
2024-02-15T00:46:00.465Z,78.750000
2024-02-15T00:47:00.408Z,78.750000
2024-02-15T00:48:00.737Z,78.750000
2024-02-15T00:49:00.665Z,90.000000
2024-02-15T00:50:04.142Z,90.000000
2024-02-15T00:51:00.758Z,90.000000
2024-02-15T00:52:00.531Z,45.000000
2024-02-15T00:53:00.443Z,45.000000
2024-02-15T00:54:00.556Z,22.500000
2024-02-15T00:55:02.960Z,22.500000
2024-02-15T00:56:00.568Z,22.500000
2024-02-15T00:57:00.479Z,11.250000
2024-02-15T00:58:00.624Z,11.250000
2024-02-15T00:59:00.471Z,45.000000
2024-02-15T01:00:03.884Z,45.000000
2024-02-15T01:01:00.580Z,45.000000
2024-02-15T01:02:00.603Z,56.250000
2024-02-15T01:03:00.674Z,56.250000
2024-02-15T01:04:00.771Z,56.250000
2024-02-15T01:05:03.054Z,0.000000
2024-02-15T01:06:00.807Z,0.000000
2024-02-15T01:07:00.611Z,22.500000
2024-02-15T01:08:00.638Z,22.500000
2024-02-15T01:09:00.678Z,67.500000
2024-02-15T01:10:03.990Z,67.500000
2024-02-15T01:11:00.639Z,56.250000
2024-02-15T01:12:00.756Z,56.250000
2024-02-15T01:13:00.623Z,56.250000
2024-02-15T01:14:00.707Z,0.000000
2024-02-15T01:15:03.162Z,0.000000
2024-02-15T01:16:00.761Z,0.000000
2024-02-15T01:17:00.675Z,11.250000
2024-02-15T01:18:01.317Z,11.250000
2024-02-15T01:19:01.039Z,45.000000
2024-02-15T01:20:03.907Z,45.000000
2024-02-15T01:21:00.740Z,33.750000
2024-02-15T01:22:00.852Z,33.750000
2024-02-15T01:23:00.716Z,33.750000
2024-02-15T01:24:00.824Z,11.250000
2024-02-15T01:25:03.149Z,11.250000
2024-02-15T01:26:00.814Z,11.250000
2024-02-15T01:27:00.777Z,78.750000
2024-02-15T01:28:02.568Z,78.750000
2024-02-15T01:29:00.739Z,112.500000
2024-02-15T01:30:03.885Z,112.500000
2024-02-15T01:31:00.778Z,112.500000
2024-02-15T01:32:00.888Z,22.500000
2024-02-15T01:33:00.964Z,22.500000
2024-02-15T01:34:02.713Z,22.500000
2024-02-15T01:35:03.760Z,0.000000
2024-02-15T01:36:00.960Z,0.000000
2024-02-15T01:37:00.815Z,0.000000
2024-02-15T01:38:00.915Z,0.000000
2024-02-15T01:39:00.873Z,0.000000
2024-02-15T01:40:03.757Z,0.000000
2024-02-15T01:41:00.843Z,0.000000
2024-02-15T01:42:01.002Z,0.000000
2024-02-15T01:43:00.860Z,0.000000
2024-02-15T01:44:00.969Z,0.000000
2024-02-15T01:45:04.109Z,0.000000
2024-02-15T01:46:00.999Z,0.000000
2024-02-15T01:47:00.914Z,22.500000
2024-02-15T01:48:01.262Z,22.500000
2024-02-15T01:49:01.091Z,22.500000
2024-02-15T01:50:03.756Z,11.250000
2024-02-15T01:51:00.980Z,11.250000
2024-02-15T01:52:01.101Z,11.250000
2024-02-15T01:53:00.989Z,11.250000
2024-02-15T01:54:01.112Z,11.250000
2024-02-15T01:55:03.753Z,11.250000
2024-02-15T01:56:01.104Z,11.250000
2024-02-15T01:57:01.069Z,11.250000
2024-02-15T01:58:04.262Z,22.500000
2024-02-15T01:59:01.108Z,22.500000
2024-02-15T02:00:04.161Z,22.500000
2024-02-15T02:01:01.093Z,11.250000
2024-02-15T02:02:02.631Z,11.250000
2024-02-15T02:03:01.294Z,22.500000
2024-02-15T02:04:01.340Z,22.500000
2024-02-15T02:05:03.926Z,11.250000
2024-02-15T02:06:01.276Z,11.250000
2024-02-15T02:07:01.151Z,0.000000
2024-02-15T02:08:01.202Z,0.000000
2024-02-15T02:09:01.184Z,0.000000
2024-02-15T02:10:04.054Z,0.000000
2024-02-15T02:11:01.170Z,0.000000
2024-02-15T02:12:01.291Z,0.000000
2024-02-15T02:13:01.193Z,11.250000
2024-02-15T02:14:01.299Z,11.250000
2024-02-15T02:15:02.682Z,22.500000
2024-02-15T02:16:00.300Z,22.500000
2024-02-15T02:17:00.231Z,22.500000
2024-02-15T02:18:00.439Z,33.750000
2024-02-15T02:19:00.604Z,33.750000
2024-02-15T02:20:03.210Z,33.750000
2024-02-15T02:21:00.298Z,33.750000
2024-02-15T02:22:00.365Z,33.750000
2024-02-15T02:23:00.275Z,22.500000
2024-02-15T02:24:00.615Z,22.500000
2024-02-15T02:25:02.678Z,22.500000
2024-02-15T02:26:00.396Z,22.500000
2024-02-15T02:27:00.319Z,22.500000
2024-02-15T02:28:00.413Z,11.250000
2024-02-15T02:29:00.316Z,11.250000
2024-02-15T02:30:03.701Z,11.250000
2024-02-15T02:31:00.344Z,11.250000
2024-02-15T02:32:00.476Z,11.250000
2024-02-15T02:33:00.969Z,22.500000
2024-02-15T02:34:00.805Z,22.500000
2024-02-15T02:35:02.796Z,22.500000
2024-02-15T02:36:00.563Z,0.000000
2024-02-15T02:37:00.397Z,0.000000
2024-02-15T02:38:00.489Z,0.000000
2024-02-15T02:39:00.475Z,0.000000
2024-02-15T02:40:04.155Z,22.500000
2024-02-15T02:41:00.450Z,22.500000
2024-02-15T02:42:00.570Z,22.500000
2024-02-15T02:43:00.644Z,22.500000
2024-02-15T02:44:00.546Z,22.500000
2024-02-15T02:45:02.924Z,22.500000
2024-02-15T02:46:00.576Z,33.750000
2024-02-15T02:47:00.478Z,33.750000
2024-02-15T02:48:00.857Z,33.750000
2024-02-15T02:49:00.587Z,33.750000
2024-02-15T02:50:03.762Z,33.750000
2024-02-15T02:51:00.599Z,22.500000
2024-02-15T02:52:00.624Z,22.500000
2024-02-15T02:53:00.565Z,22.500000
2024-02-15T02:54:00.762Z,22.500000
2024-02-15T02:55:02.962Z,0.000000
2024-02-15T02:56:00.617Z,0.000000
2024-02-15T02:57:00.622Z,0.000000
2024-02-15T02:58:01.696Z,0.000000
2024-02-15T02:59:00.549Z,0.000000
2024-02-15T03:00:03.929Z,33.750000
2024-02-15T03:01:00.597Z,33.750000
2024-02-15T03:02:00.670Z,45.000000
2024-02-15T03:03:00.640Z,45.000000
2024-02-15T03:04:00.824Z,45.000000
2024-02-15T03:05:03.088Z,22.500000
2024-02-15T03:06:00.832Z,22.500000
2024-02-15T03:07:00.670Z,22.500000
2024-02-15T03:08:00.775Z,22.500000
2024-02-15T03:09:00.673Z,22.500000
2024-02-15T03:10:05.425Z,0.000000
2024-02-15T03:11:00.668Z,0.000000
2024-02-15T03:12:00.792Z,0.000000
2024-02-15T03:13:00.686Z,0.000000
2024-02-15T03:14:00.754Z,0.000000
2024-02-15T03:15:03.172Z,0.000000
2024-02-15T03:16:00.826Z,0.000000
2024-02-15T03:17:00.705Z,0.000000
2024-02-15T03:18:01.244Z,0.000000
2024-02-15T03:19:00.752Z,33.750000
2024-02-15T03:20:03.717Z,33.750000
2024-02-15T03:21:00.758Z,33.750000
2024-02-15T03:22:00.821Z,33.750000
2024-02-15T03:23:00.755Z,33.750000
2024-02-15T03:24:00.938Z,33.750000
2024-02-15T03:25:03.738Z,0.000000
2024-02-15T03:26:00.844Z,0.000000
2024-02-15T03:27:00.831Z,0.000000
2024-02-15T03:28:00.901Z,0.000000
2024-02-15T03:29:00.824Z,0.000000
2024-02-15T03:30:04.163Z,0.000000
2024-02-15T03:31:00.822Z,0.000000
2024-02-15T03:32:00.900Z,0.000000
2024-02-15T03:33:01.014Z,0.000000
2024-02-15T03:34:01.161Z,11.250000
2024-02-15T03:35:04.242Z,11.250000
2024-02-15T03:36:01.089Z,33.750000
2024-02-15T03:37:00.894Z,33.750000
2024-02-15T03:38:00.999Z,33.750000
2024-02-15T03:39:00.972Z,33.750000
2024-02-15T03:40:03.805Z,33.750000
2024-02-15T03:41:00.963Z,0.000000
2024-02-15T03:42:01.043Z,0.000000
2024-02-15T03:43:00.942Z,0.000000
2024-02-15T03:44:01.028Z,11.250000
2024-02-15T03:45:03.795Z,11.250000
2024-02-15T03:46:01.070Z,11.250000
2024-02-15T03:47:00.965Z,11.250000
2024-02-15T03:48:01.167Z,22.500000
2024-02-15T03:49:01.115Z,22.500000
2024-02-15T03:50:04.159Z,22.500000
2024-02-15T03:51:01.034Z,22.500000
2024-02-15T03:52:01.342Z,22.500000
2024-02-15T03:53:01.062Z,22.500000
2024-02-15T03:54:01.157Z,11.250000
2024-02-15T03:55:03.755Z,11.250000
2024-02-15T03:56:01.153Z,11.250000
2024-02-15T03:57:01.112Z,11.250000
2024-02-15T03:58:01.216Z,22.500000
2024-02-15T03:59:01.081Z,22.500000
2024-02-15T04:00:06.738Z,22.500000
2024-02-15T04:01:01.160Z,11.250000
2024-02-15T04:02:01.214Z,11.250000
2024-02-15T04:03:01.173Z,11.250000
2024-02-15T04:04:01.349Z,11.250000
2024-02-15T04:05:03.678Z,11.250000
2024-02-15T04:06:01.310Z,22.500000
2024-02-15T04:07:01.223Z,22.500000
2024-02-15T04:08:01.268Z,22.500000
2024-02-15T04:09:00.232Z,33.750000
2024-02-15T04:10:03.806Z,33.750000
2024-02-15T04:11:00.211Z,33.750000
2024-02-15T04:12:01.622Z,22.500000
2024-02-15T04:13:00.277Z,22.500000
2024-02-15T04:14:00.295Z,22.500000
2024-02-15T04:15:02.760Z,0.000000
2024-02-15T04:16:00.329Z,0.000000
2024-02-15T04:17:00.254Z,0.000000
2024-02-15T04:18:00.451Z,0.000000
2024-02-15T04:19:00.361Z,22.500000
2024-02-15T04:20:05.937Z,22.500000
2024-02-15T04:21:00.628Z,22.500000
2024-02-15T04:22:00.396Z,22.500000
2024-02-15T04:23:00.314Z,22.500000
2024-02-15T04:24:07.685Z,11.250000
2024-02-15T04:25:02.717Z,11.250000
2024-02-15T04:26:00.411Z,11.250000
2024-02-15T04:27:00.505Z,22.500000
2024-02-15T04:28:00.463Z,22.500000
2024-02-15T04:29:00.344Z,22.500000
2024-02-15T04:30:04.251Z,22.500000
2024-02-15T04:31:00.366Z,22.500000
2024-02-15T04:32:15.950Z,22.500000
2024-02-15T04:33:00.545Z,22.500000
2024-02-15T04:35:09.593Z,33.750000
2024-02-15T04:36:07.756Z,33.750000
2024-02-15T04:37:00.427Z,22.500000
2024-02-15T04:38:00.542Z,22.500000
2024-02-15T04:39:00.478Z,33.750000
2024-02-15T04:40:03.133Z,33.750000
2024-02-15T04:41:00.506Z,22.500000
2024-02-15T04:42:00.783Z,22.500000
2024-02-15T04:43:00.494Z,22.500000
2024-02-15T04:44:00.615Z,33.750000
2024-02-15T04:45:03.645Z,33.750000
2024-02-15T04:46:00.594Z,33.750000
2024-02-15T04:47:00.550Z,22.500000
2024-02-15T04:48:00.803Z,22.500000
2024-02-15T04:49:00.561Z,22.500000
2024-02-15T04:50:04.897Z,22.500000
2024-02-15T04:51:00.827Z,45.000000
2024-02-15T04:52:03.384Z,45.000000
2024-02-15T04:53:00.616Z,45.000000
2024-02-15T04:54:00.719Z,56.250000
2024-02-15T04:55:03.631Z,56.250000
2024-02-15T04:56:00.691Z,56.250000
2024-02-15T04:57:00.719Z,22.500000
2024-02-15T04:58:01.806Z,22.500000
2024-02-15T04:59:00.657Z,33.750000
2024-02-15T05:00:04.320Z,33.750000
2024-02-15T05:01:01.048Z,33.750000
2024-02-15T05:02:00.782Z,33.750000
2024-02-15T05:03:00.724Z,33.750000
2024-02-15T05:04:00.855Z,33.750000
2024-02-15T05:05:03.654Z,33.750000
2024-02-15T05:06:01.012Z,33.750000
2024-02-15T05:07:00.745Z,33.750000
2024-02-15T05:08:04.158Z,33.750000
2024-02-15T05:09:00.784Z,33.750000
2024-02-15T05:10:04.903Z,33.750000
2024-02-15T05:11:00.766Z,33.750000
2024-02-15T05:12:00.901Z,33.750000
2024-02-15T05:13:00.784Z,33.750000
2024-02-15T05:14:00.861Z,22.500000
2024-02-15T05:15:03.670Z,22.500000
2024-02-15T05:16:00.940Z,22.500000
2024-02-15T05:17:00.832Z,33.750000
2024-02-15T05:18:00.995Z,33.750000
2024-02-15T05:19:00.940Z,33.750000
2024-02-15T05:20:07.392Z,33.750000
2024-02-15T05:21:00.863Z,33.750000
2024-02-15T05:22:01.966Z,22.500000
2024-02-15T05:23:00.856Z,22.500000
2024-02-15T05:24:01.008Z,33.750000
2024-02-15T05:25:04.930Z,33.750000
2024-02-15T05:26:02.074Z,33.750000
2024-02-15T05:27:00.948Z,33.750000
2024-02-15T05:28:01.027Z,33.750000
2024-02-15T05:29:00.939Z,33.750000
2024-02-15T05:30:04.001Z,33.750000
2024-02-15T05:31:00.949Z,33.750000
2024-02-15T05:32:05.464Z,33.750000
2024-02-15T05:33:01.064Z,45.000000
2024-02-15T05:35:08.852Z,33.750000
2024-02-15T05:36:01.080Z,33.750000
2024-02-15T05:37:00.994Z,22.500000
2024-02-15T05:38:01.065Z,22.500000
2024-02-15T05:39:01.055Z,22.500000
2024-02-15T05:40:03.857Z,22.500000
2024-02-15T05:41:01.049Z,22.500000
2024-02-15T05:42:01.119Z,22.500000
2024-02-15T05:43:01.051Z,22.500000
2024-02-15T05:44:01.176Z,22.500000
2024-02-15T05:45:03.806Z,22.500000
2024-02-15T05:46:01.125Z,22.500000
2024-02-15T05:47:01.091Z,22.500000
2024-02-15T05:48:01.345Z,22.500000
2024-02-15T05:49:01.284Z,22.500000
2024-02-15T05:50:04.127Z,22.500000
2024-02-15T05:51:01.242Z,22.500000
2024-02-15T05:52:01.278Z,22.500000
2024-02-15T05:53:01.138Z,22.500000
2024-02-15T05:54:01.293Z,22.500000
2024-02-15T05:55:03.703Z,33.750000
2024-02-15T05:56:01.220Z,33.750000
2024-02-15T05:57:03.695Z,33.750000
2024-02-15T05:58:01.272Z,33.750000
2024-02-15T05:59:01.198Z,33.750000
2024-02-15T06:00:13.563Z,33.750000
2024-02-15T06:01:00.384Z,33.750000
2024-02-15T06:02:00.329Z,33.750000
2024-02-15T06:03:00.333Z,33.750000
2024-02-15T06:04:00.403Z,33.750000
2024-02-15T06:05:04.180Z,33.750000
2024-02-15T06:06:00.621Z,33.750000
2024-02-15T06:07:00.420Z,33.750000
2024-02-15T06:08:00.402Z,33.750000
2024-02-15T06:09:00.365Z,33.750000
2024-02-15T06:10:03.739Z,33.750000
2024-02-15T06:11:00.335Z,33.750000
2024-02-15T06:12:00.464Z,33.750000
2024-02-15T06:13:00.346Z,45.000000
2024-02-15T06:14:00.444Z,45.000000
2024-02-15T06:15:02.809Z,33.750000
2024-02-15T06:16:00.482Z,33.750000
2024-02-15T06:17:00.399Z,33.750000
2024-02-15T06:18:00.624Z,22.500000
2024-02-15T06:19:00.571Z,22.500000
2024-02-15T06:20:03.868Z,22.500000
2024-02-15T06:21:00.525Z,22.500000
2024-02-15T06:22:00.511Z,22.500000
2024-02-15T06:23:00.437Z,22.500000
2024-02-15T06:24:00.632Z,22.500000
2024-02-15T06:25:03.048Z,22.500000
2024-02-15T06:26:00.553Z,22.500000
2024-02-15T06:27:00.531Z,22.500000
2024-02-15T06:28:00.713Z,22.500000
2024-02-15T06:29:00.517Z,22.500000
2024-02-15T06:30:05.467Z,22.500000
2024-02-15T06:31:00.555Z,11.250000
2024-02-15T06:32:00.633Z,11.250000
2024-02-15T06:33:00.709Z,22.500000
2024-02-15T06:34:08.056Z,22.500000
2024-02-15T06:35:03.221Z,22.500000
2024-02-15T06:36:00.796Z,33.750000
2024-02-15T06:37:00.567Z,33.750000
2024-02-15T06:38:00.673Z,33.750000
2024-02-15T06:39:00.627Z,22.500000
2024-02-15T06:40:04.009Z,22.500000
2024-02-15T06:41:00.614Z,22.500000
2024-02-15T06:42:00.743Z,22.500000
2024-02-15T06:43:00.623Z,22.500000
2024-02-15T06:44:00.722Z,22.500000
2024-02-15T06:45:03.207Z,22.500000
2024-02-15T06:46:00.747Z,33.750000
2024-02-15T06:47:00.691Z,33.750000
2024-02-15T06:48:00.906Z,33.750000
2024-02-15T06:49:00.865Z,22.500000
2024-02-15T06:50:03.754Z,22.500000
2024-02-15T06:51:00.730Z,22.500000
2024-02-15T06:52:00.829Z,22.500000
2024-02-15T06:53:00.744Z,22.500000
2024-02-15T06:54:00.865Z,22.500000
2024-02-15T06:55:03.160Z,22.500000
2024-02-15T06:56:00.827Z,22.500000
2024-02-15T06:57:00.807Z,22.500000
2024-02-15T06:58:00.859Z,22.500000
2024-02-15T06:59:00.769Z,22.500000
2024-02-15T07:00:04.145Z,22.500000
2024-02-15T07:01:00.911Z,45.000000
2024-02-15T07:02:02.095Z,45.000000
2024-02-15T07:03:00.882Z,45.000000
2024-02-15T07:04:04.743Z,33.750000
2024-02-15T07:05:03.673Z,33.750000
2024-02-15T07:06:02.851Z,22.500000
2024-02-15T07:07:01.056Z,22.500000
2024-02-15T07:08:05.493Z,22.500000
2024-02-15T07:09:00.965Z,22.500000
2024-02-15T07:10:05.606Z,22.500000
2024-02-15T07:11:00.899Z,22.500000
2024-02-15T07:12:01.764Z,45.000000
2024-02-15T07:13:00.954Z,45.000000
2024-02-15T07:14:01.190Z,22.500000
2024-02-15T07:15:04.964Z,22.500000
2024-02-15T07:16:01.113Z,22.500000
2024-02-15T07:17:00.955Z,22.500000
2024-02-15T07:18:01.608Z,22.500000
2024-02-15T07:19:01.182Z,33.750000
2024-02-15T07:20:03.875Z,33.750000
2024-02-15T07:21:01.296Z,45.000000
2024-02-15T07:22:01.158Z,45.000000
2024-02-15T07:23:01.017Z,45.000000
2024-02-15T07:24:02.071Z,45.000000
2024-02-15T07:25:03.760Z,45.000000
2024-02-15T07:26:01.162Z,22.500000
2024-02-15T07:27:01.170Z,22.500000
2024-02-15T07:28:01.733Z,22.500000
2024-02-15T07:29:01.073Z,22.500000
2024-02-15T07:30:04.168Z,22.500000
2024-02-15T07:31:01.086Z,22.500000
2024-02-15T07:32:01.174Z,11.250000
2024-02-15T07:33:01.231Z,11.250000
2024-02-15T07:34:01.821Z,22.500000
2024-02-15T07:35:03.906Z,22.500000
2024-02-15T07:36:02.207Z,22.500000
2024-02-15T07:37:01.137Z,22.500000
2024-02-15T07:38:01.940Z,22.500000
2024-02-15T07:39:01.191Z,33.750000
2024-02-15T07:40:04.177Z,33.750000
2024-02-15T07:41:01.173Z,22.500000
2024-02-15T07:42:01.508Z,22.500000
2024-02-15T07:43:01.198Z,22.500000
2024-02-15T07:44:01.697Z,22.500000
2024-02-15T07:45:03.749Z,22.500000
2024-02-15T07:46:00.324Z,22.500000
2024-02-15T07:47:00.217Z,22.500000
2024-02-15T07:48:03.825Z,22.500000
2024-02-15T07:49:00.353Z,22.500000
2024-02-15T07:50:03.934Z,22.500000
2024-02-15T07:51:00.355Z,33.750000
2024-02-15T07:52:01.963Z,33.750000
2024-02-15T07:53:00.273Z,33.750000
2024-02-15T07:54:00.447Z,33.750000
2024-02-15T07:55:02.724Z,33.750000
2024-02-15T07:56:00.509Z,33.750000
2024-02-15T07:57:00.469Z,45.000000
2024-02-15T07:58:08.623Z,45.000000
2024-02-15T07:59:00.412Z,22.500000
2024-02-15T08:00:04.932Z,22.500000
2024-02-15T08:01:00.413Z,22.500000
2024-02-15T08:02:01.354Z,22.500000
2024-02-15T08:03:00.593Z,22.500000
2024-02-15T08:04:00.522Z,22.500000
2024-02-15T08:05:02.916Z,22.500000
2024-02-15T08:06:03.972Z,22.500000
2024-02-15T08:07:00.513Z,22.500000
2024-02-15T08:08:00.487Z,22.500000
2024-02-15T08:09:00.511Z,22.500000
2024-02-15T08:10:04.104Z,22.500000
2024-02-15T08:11:00.446Z,22.500000
2024-02-15T08:12:00.704Z,33.750000
2024-02-15T08:13:00.495Z,33.750000
2024-02-15T08:14:00.871Z,22.500000
2024-02-15T08:15:03.815Z,22.500000
2024-02-15T08:16:00.591Z,22.500000
2024-02-15T08:17:00.552Z,22.500000
2024-02-15T08:18:03.875Z,22.500000
2024-02-15T08:19:00.627Z,22.500000
2024-02-15T08:20:05.549Z,11.250000
2024-02-15T08:21:00.574Z,11.250000
2024-02-15T08:22:00.650Z,11.250000
2024-02-15T08:23:00.577Z,11.250000
2024-02-15T08:24:00.705Z,11.250000
2024-02-15T08:25:03.099Z,11.250000
2024-02-15T08:26:00.629Z,11.250000
2024-02-15T08:27:00.673Z,22.500000
2024-02-15T08:28:00.711Z,22.500000
2024-02-15T08:29:00.582Z,22.500000
2024-02-15T08:30:03.819Z,33.750000
2024-02-15T08:31:00.620Z,33.750000
2024-02-15T08:32:00.678Z,22.500000
2024-02-15T08:33:00.732Z,22.500000
2024-02-15T08:34:00.832Z,22.500000
2024-02-15T08:35:03.286Z,22.500000
2024-02-15T08:36:00.819Z,22.500000
2024-02-15T08:37:00.716Z,22.500000
2024-02-15T08:38:00.780Z,22.500000
2024-02-15T08:39:00.775Z,22.500000
2024-02-15T08:40:03.809Z,22.500000
2024-02-15T08:41:00.704Z,22.500000
2024-02-15T08:42:00.821Z,22.500000
2024-02-15T08:43:00.714Z,22.500000
2024-02-15T08:44:00.841Z,22.500000
2024-02-15T08:45:03.796Z,22.500000
2024-02-15T08:46:00.847Z,22.500000
2024-02-15T08:47:00.756Z,22.500000
2024-02-15T08:48:01.019Z,22.500000
2024-02-15T08:49:00.966Z,22.500000
2024-02-15T08:50:03.895Z,33.750000
2024-02-15T08:51:00.960Z,33.750000
2024-02-15T08:52:00.970Z,33.750000
2024-02-15T08:53:00.835Z,22.500000
2024-02-15T08:54:00.959Z,22.500000
2024-02-15T08:55:03.733Z,33.750000
2024-02-15T08:56:00.943Z,33.750000
2024-02-15T08:57:00.903Z,22.500000
2024-02-15T08:58:00.960Z,22.500000
2024-02-15T08:59:03.755Z,22.500000
2024-02-15T09:00:03.891Z,22.500000
2024-02-15T09:01:01.030Z,22.500000
2024-02-15T09:02:00.987Z,33.750000
2024-02-15T09:03:00.979Z,33.750000
2024-02-15T09:04:01.076Z,33.750000
2024-02-15T09:05:04.241Z,22.500000
2024-02-15T09:06:01.110Z,22.500000
2024-02-15T09:07:01.072Z,22.500000
2024-02-15T09:08:01.017Z,22.500000
2024-02-15T09:09:01.036Z,22.500000
2024-02-15T09:10:03.831Z,22.500000
2024-02-15T09:11:01.019Z,22.500000
2024-02-15T09:12:01.150Z,33.750000
2024-02-15T09:13:01.006Z,33.750000
2024-02-15T09:14:01.090Z,33.750000
2024-02-15T09:15:03.797Z,33.750000
2024-02-15T09:16:01.131Z,33.750000
2024-02-15T09:17:01.037Z,33.750000
2024-02-15T09:18:01.226Z,33.750000
2024-02-15T09:19:01.251Z,33.750000
2024-02-15T09:20:04.164Z,22.500000
2024-02-15T09:21:01.206Z,22.500000
2024-02-15T09:22:01.179Z,22.500000
2024-02-15T09:23:01.093Z,33.750000
2024-02-15T09:24:01.266Z,33.750000
2024-02-15T09:25:03.700Z,33.750000
2024-02-15T09:26:01.168Z,33.750000
2024-02-15T09:27:01.162Z,33.750000
2024-02-15T09:28:01.242Z,33.750000
2024-02-15T09:29:01.152Z,33.750000
2024-02-15T09:30:04.157Z,33.750000
2024-02-15T09:31:01.196Z,33.750000
2024-02-15T09:32:01.259Z,33.750000
2024-02-15T09:33:01.375Z,45.000000
2024-02-15T09:34:01.493Z,45.000000
2024-02-15T09:35:06.154Z,45.000000
2024-02-15T09:36:00.301Z,45.000000
2024-02-15T09:37:00.207Z,45.000000
2024-02-15T09:38:00.291Z,33.750000
2024-02-15T09:39:00.405Z,33.750000
2024-02-15T09:40:03.900Z,33.750000
2024-02-15T09:41:00.245Z,33.750000
2024-02-15T09:42:00.492Z,33.750000
2024-02-15T09:43:00.263Z,33.750000
2024-02-15T09:44:00.332Z,33.750000
2024-02-15T09:45:02.718Z,33.750000
2024-02-15T09:46:00.555Z,33.750000
2024-02-15T09:47:00.317Z,33.750000
2024-02-15T09:48:00.452Z,33.750000
2024-02-15T09:49:00.528Z,33.750000
2024-02-15T09:50:03.795Z,33.750000
2024-02-15T09:51:00.369Z,45.000000
2024-02-15T09:52:00.445Z,45.000000
2024-02-15T09:53:00.361Z,45.000000
2024-02-15T09:54:00.460Z,45.000000
2024-02-15T09:55:02.840Z,33.750000
2024-02-15T09:56:00.438Z,33.750000
2024-02-15T09:57:00.439Z,33.750000
2024-02-15T09:58:00.495Z,33.750000
2024-02-15T09:59:00.399Z,33.750000
2024-02-15T10:00:04.567Z,33.750000
2024-02-15T10:01:00.454Z,33.750000
2024-02-15T10:02:00.500Z,33.750000
2024-02-15T10:03:00.513Z,45.000000
2024-02-15T10:04:00.663Z,45.000000
2024-02-15T10:05:02.952Z,45.000000
2024-02-15T10:06:00.635Z,22.500000
2024-02-15T10:07:00.739Z,22.500000
2024-02-15T10:08:00.585Z,22.500000
2024-02-15T10:09:00.555Z,33.750000
2024-02-15T10:10:03.872Z,33.750000
2024-02-15T10:11:00.578Z,45.000000
2024-02-15T10:12:00.633Z,45.000000
2024-02-15T10:13:00.564Z,45.000000
2024-02-15T10:14:00.618Z,45.000000
2024-02-15T10:15:03.088Z,45.000000
2024-02-15T10:16:00.649Z,33.750000
2024-02-15T10:17:00.573Z,33.750000
2024-02-15T10:18:00.814Z,33.750000
2024-02-15T10:19:00.711Z,33.750000
2024-02-15T10:20:03.937Z,33.750000
2024-02-15T10:21:00.705Z,45.000000
2024-02-15T10:22:00.694Z,45.000000
2024-02-15T10:23:00.621Z,45.000000
2024-02-15T10:24:00.718Z,22.500000
2024-02-15T10:25:03.141Z,22.500000
2024-02-15T10:26:00.715Z,22.500000
2024-02-15T10:27:00.756Z,22.500000
2024-02-15T10:28:00.757Z,22.500000
2024-02-15T10:29:00.665Z,22.500000
2024-02-15T10:30:03.955Z,22.500000
2024-02-15T10:31:00.681Z,45.000000
2024-02-15T10:32:00.786Z,45.000000
2024-02-15T10:33:00.883Z,45.000000
2024-02-15T10:34:00.965Z,45.000000
2024-02-15T10:35:03.153Z,45.000000
2024-02-15T10:36:00.857Z,33.750000
2024-02-15T10:37:00.729Z,33.750000
2024-02-15T10:38:00.815Z,33.750000
2024-02-15T10:39:00.782Z,45.000000
2024-02-15T10:40:04.271Z,45.000000
2024-02-15T10:41:00.775Z,33.750000
2024-02-15T10:42:00.985Z,33.750000
2024-02-15T10:43:00.856Z,56.250000
2024-02-15T10:44:00.872Z,56.250000
2024-02-15T10:45:03.761Z,56.250000
2024-02-15T10:46:00.918Z,45.000000
2024-02-15T10:47:00.838Z,45.000000
2024-02-15T10:48:01.156Z,67.500000
2024-02-15T10:49:01.089Z,67.500000
2024-02-15T10:50:05.610Z,56.250000
2024-02-15T10:51:00.957Z,56.250000
2024-02-15T10:52:00.946Z,56.250000
2024-02-15T10:53:00.869Z,45.000000
2024-02-15T10:54:01.027Z,45.000000
2024-02-15T10:55:04.234Z,45.000000
2024-02-15T10:56:01.003Z,33.750000
2024-02-15T10:57:00.956Z,33.750000
2024-02-15T10:58:01.021Z,33.750000
2024-02-15T10:59:00.954Z,33.750000
2024-02-15T11:00:04.109Z,33.750000
2024-02-15T11:01:01.094Z,56.250000
2024-02-15T11:02:01.158Z,56.250000
2024-02-15T11:03:01.050Z,56.250000
2024-02-15T11:04:01.148Z,22.500000
2024-02-15T11:05:03.849Z,22.500000
2024-02-15T11:06:01.316Z,22.500000
2024-02-15T11:07:01.230Z,33.750000
2024-02-15T11:08:01.259Z,33.750000
2024-02-15T11:09:01.153Z,22.500000
2024-02-15T11:10:04.030Z,22.500000
2024-02-15T11:11:01.117Z,22.500000
2024-02-15T11:12:01.202Z,33.750000
2024-02-15T11:13:01.081Z,33.750000
2024-02-15T11:14:01.152Z,45.000000
2024-02-15T11:15:03.758Z,45.000000
2024-02-15T11:16:01.200Z,45.000000
2024-02-15T11:17:01.105Z,33.750000
2024-02-15T11:18:01.289Z,33.750000
2024-02-15T11:19:01.230Z,22.500000
2024-02-15T11:20:04.191Z,22.500000
2024-02-15T11:21:01.194Z,22.500000
2024-02-15T11:22:01.220Z,22.500000
2024-02-15T11:23:01.161Z,22.500000
2024-02-15T11:24:01.298Z,33.750000
2024-02-15T11:25:04.497Z,33.750000
2024-02-15T11:26:00.231Z,33.750000
2024-02-15T11:27:00.282Z,33.750000